createdAt,value
2023-03-13T00:00:14.166Z,63.16
2023-03-13T00:01:14.243Z,60.97
2023-03-13T00:02:14.375Z,59.97
2023-03-13T00:03:14.409Z,61.21
2023-03-13T00:04:14.476Z,63.51
2023-03-13T00:05:14.580Z,59.09
2023-03-13T00:06:14.633Z,58.90
2023-03-13T00:07:14.708Z,60.26
2023-03-13T00:08:14.796Z,62.75
2023-03-13T00:09:14.871Z,59.04
2023-03-13T00:10:14.969Z,58.63
2023-03-13T00:11:15.026Z,60.67
2023-03-13T00:12:15.103Z,63.67
2023-03-13T00:13:15.188Z,63.15
2023-03-13T00:14:15.292Z,65.08
2023-03-13T00:15:15.340Z,65.80
2023-03-13T00:16:16.051Z,60.24
2023-03-13T00:17:15.481Z,64.73
2023-03-13T00:18:15.564Z,61.56
2023-03-13T00:19:15.643Z,58.49
2023-03-13T00:20:15.726Z,58.22
2023-03-13T00:21:15.799Z,57.12
2023-03-13T00:22:15.885Z,57.55
2023-03-13T00:23:15.960Z,61.07
2023-03-13T00:24:16.045Z,59.52
2023-03-13T00:25:16.111Z,59.44
2023-03-13T00:26:16.182Z,60.49
2023-03-13T00:27:16.261Z,58.20
2023-03-13T00:28:16.332Z,56.41
2023-03-13T01:24:20.632Z,57.77
2023-03-13T01:25:20.710Z,55.88
2023-03-13T01:26:20.774Z,54.47
2023-03-13T01:27:20.852Z,53.27
2023-03-13T01:28:20.930Z,58.42
2023-03-13T01:29:21.024Z,56.18
2023-03-13T01:30:21.086Z,50.27
2023-03-13T01:31:21.249Z,56.65
2023-03-13T01:32:21.254Z,54.06
2023-03-13T01:33:21.293Z,52.94
2023-03-13T01:34:21.375Z,53.72
2023-03-13T01:35:21.470Z,51.99
2023-03-13T03:37:30.619Z,43.10
2023-03-13T03:38:30.755Z,38.37
2023-03-13T03:39:30.762Z,37.75
2023-03-13T03:40:30.842Z,41.88
2023-03-13T03:41:30.927Z,39.25
2023-03-13T03:42:30.995Z,44.40
2023-03-13T03:43:31.077Z,44.46
2023-03-13T03:44:31.147Z,41.79
2023-03-13T03:45:31.257Z,39.57
2023-03-13T03:46:31.289Z,40.57
2023-03-13T03:47:31.364Z,41.21
2023-03-13T03:48:31.446Z,41.55
2023-03-13T03:49:31.521Z,45.06
2023-03-13T03:50:31.658Z,40.55
2023-03-13T03:51:31.682Z,39.03
2023-03-13T03:52:31.758Z,43.03
2023-03-13T03:53:31.914Z,38.07
2023-03-13T03:54:31.901Z,37.91
2023-03-13T03:55:34.103Z,38.49
2023-03-13T03:56:31.997Z,43.27
2023-03-13T03:57:32.016Z,35.82
2023-03-13T03:58:32.047Z,39.44
2023-03-13T03:59:32.079Z,39.85
2023-03-13T04:00:32.092Z,39.94
2023-03-13T04:01:32.127Z,41.90
2023-03-13T04:02:32.243Z,33.54
2023-03-13T04:03:32.211Z,38.84
2023-03-13T04:04:32.217Z,34.54
2023-03-13T04:05:32.240Z,44.77
2023-03-13T04:06:32.272Z,40.55
2023-03-13T04:07:32.299Z,38.41
2023-03-13T04:08:32.323Z,38.72
2023-03-13T04:09:32.397Z,38.16
2023-03-13T04:10:32.382Z,37.36
2023-03-13T04:11:32.416Z,38.91
2023-03-13T04:12:32.458Z,37.86
2023-03-13T04:13:32.481Z,37.90
2023-03-13T04:55:33.908Z,34.94
2023-03-13T04:57:34.038Z,35.91
2023-03-13T06:28:40.685Z,110.33
2023-03-13T06:29:40.768Z,116.82
2023-03-13T06:31:40.976Z,118.08
2023-03-13T06:32:40.945Z,118.17
2023-03-13T06:33:40.842Z,125.71
2023-03-13T06:34:40.874Z,130.40
2023-03-13T06:36:41.003Z,114.70
2023-03-13T06:39:40.964Z,121.65
2023-03-13T06:40:41.064Z,118.19
2023-03-13T06:41:41.003Z,117.49
2023-03-13T06:42:41.021Z,113.27
2023-03-13T06:43:41.056Z,114.13
2023-03-13T06:44:41.076Z,110.04
2023-03-13T06:45:41.094Z,111.27
2023-03-13T06:46:41.154Z,108.01
2023-03-13T06:47:41.140Z,111.76
2023-03-13T06:48:41.147Z,109.82
2023-03-13T06:49:41.222Z,110.82
2023-03-13T06:50:41.289Z,108.05
2023-03-13T06:51:41.354Z,104.79
2023-03-13T06:52:44.250Z,110.25
2023-03-13T06:53:41.443Z,116.67
2023-03-13T06:54:41.466Z,108.32
2023-03-13T06:55:41.489Z,113.07
2023-03-13T06:56:41.504Z,112.01
2023-03-13T06:57:41.518Z,115.27
2023-03-13T06:58:41.539Z,113.76
2023-03-13T06:59:41.565Z,110.41
2023-03-13T07:00:41.609Z,112.34
2023-03-13T07:01:41.592Z,109.05
2023-03-13T07:02:41.618Z,108.96
2023-03-13T07:04:43.617Z,106.60
2023-03-13T07:05:41.795Z,106.61
2023-03-13T07:06:41.868Z,106.87
2023-03-13T07:07:41.938Z,107.10
2023-03-13T07:08:42.024Z,109.09
2023-03-13T07:09:42.100Z,112.26
2023-03-13T07:10:42.183Z,107.25
2023-03-13T07:11:42.246Z,114.54
2023-03-13T07:12:42.356Z,116.18
2023-03-13T07:13:42.425Z,108.38
2023-03-13T07:14:42.542Z,107.27
2023-03-13T09:08:50.634Z,179.96
2023-03-13T09:09:50.725Z,184.35
2023-03-13T09:10:50.800Z,181.04
2023-03-13T09:11:50.876Z,181.04
2023-03-13T09:12:50.975Z,189.89
2023-03-13T09:13:51.068Z,182.04
2023-03-13T09:14:51.163Z,190.24
2023-03-13T09:15:51.271Z,192.25
2023-03-13T09:16:51.342Z,184.97
2023-03-13T09:17:51.497Z,179.94
2023-03-13T09:18:51.537Z,113.73
2023-03-13T09:20:00.065Z,55.55
2023-03-13T09:20:51.637Z,30.07
2023-03-13T09:21:51.688Z,30.59
2023-03-13T09:22:51.735Z,0.00
2023-03-13T09:23:51.787Z,0.00
2023-03-13T09:24:51.800Z,0.00
2023-03-13T09:25:51.821Z,0.00
2023-03-13T09:27:00.702Z,19.07
2023-03-13T09:27:52.940Z,19.46
2023-03-13T09:28:52.082Z,23.70
2023-03-13T09:29:51.951Z,31.98
2023-03-13T09:30:52.009Z,45.26
2023-03-13T09:31:52.998Z,20.79
2023-03-13T09:32:52.115Z,27.30
2023-03-13T09:33:52.048Z,41.62
2023-03-13T09:34:52.074Z,62.87
2023-03-13T09:35:52.105Z,95.50
2023-03-13T09:36:52.106Z,110.49
2023-03-13T09:37:52.132Z,117.50
2023-03-13T09:38:52.282Z,124.23
2023-03-13T09:39:52.174Z,126.98
2023-03-13T09:41:05.169Z,132.24
2023-03-13T09:41:53.204Z,132.50
2023-03-13T09:42:52.243Z,134.41
2023-03-13T09:43:52.244Z,139.20
2023-03-13T09:44:52.273Z,145.74
2023-03-13T09:45:52.283Z,159.37
2023-03-13T09:46:52.355Z,168.83
2023-03-13T09:47:52.358Z,171.58
2023-03-13T09:48:52.374Z,171.67
2023-03-13T09:49:52.388Z,178.75
2023-03-13T09:50:52.396Z,186.71
2023-03-13T09:51:52.422Z,192.46
2023-03-13T09:52:52.452Z,198.76
2023-03-13T09:53:52.520Z,207.86
2023-03-13T09:54:52.591Z,206.67
2023-03-13T09:55:52.647Z,214.70
2023-03-13T09:56:52.720Z,216.90
2023-03-13T09:57:52.778Z,219.92
2023-03-13T09:58:52.850Z,229.02
2023-03-13T09:59:52.904Z,232.59
2023-03-13T10:00:52.983Z,236.88
2023-03-13T10:01:53.122Z,241.04
2023-03-13T10:02:53.123Z,245.49
2023-03-13T10:03:53.200Z,248.13
2023-03-13T10:04:53.284Z,246.45
2023-03-13T10:05:53.342Z,248.58
2023-03-13T10:06:53.390Z,247.21
2023-03-13T10:07:53.480Z,250.00
2023-03-13T10:08:53.560Z,246.74
2023-03-13T10:09:53.594Z,250.29
2023-03-13T10:10:53.659Z,248.22
2023-03-13T10:11:53.750Z,247.86
2023-03-13T10:12:54.260Z,248.00
2023-03-13T10:13:53.886Z,239.64
2023-03-13T10:14:53.921Z,238.43
2023-03-13T10:15:54.062Z,244.77
2023-03-13T10:16:54.075Z,246.97
2023-03-13T10:17:54.162Z,248.43
2023-03-13T10:18:54.260Z,249.43
2023-03-13T10:19:54.320Z,246.68
2023-03-13T10:20:54.443Z,243.00
2023-03-13T10:21:54.483Z,248.32
2023-03-13T10:22:54.571Z,245.79
2023-03-13T10:23:54.643Z,248.54
2023-03-13T10:24:54.742Z,243.27
2023-03-13T10:25:54.853Z,244.04
2023-03-13T10:26:54.878Z,244.55
2023-03-13T10:27:54.957Z,246.69
2023-03-13T10:28:55.023Z,243.78
2023-03-13T10:29:55.107Z,244.16
2023-03-13T10:30:55.214Z,243.65
2023-03-13T10:31:55.263Z,243.44
2023-03-13T10:32:55.353Z,243.99
2023-03-13T10:33:55.365Z,241.64
2023-03-13T10:34:55.441Z,241.02
2023-03-13T10:35:55.538Z,243.91
2023-03-13T10:36:55.564Z,240.90
2023-03-13T10:37:55.644Z,239.01
2023-03-13T10:38:55.714Z,239.58
2023-03-13T10:39:55.780Z,242.88
2023-03-13T10:40:55.862Z,240.52
2023-03-13T10:41:55.934Z,240.13
2023-03-13T10:42:56.012Z,241.29
2023-03-13T10:43:56.153Z,237.25
2023-03-13T10:44:56.163Z,234.82
2023-03-13T10:45:56.229Z,239.10
2023-03-13T10:46:56.399Z,235.76
2023-03-13T10:48:56.435Z,232.47
2023-03-13T10:49:56.506Z,234.72
2023-03-13T10:50:56.569Z,231.51
2023-03-13T10:51:56.647Z,230.99
2023-03-13T10:52:56.738Z,227.77
2023-03-13T10:53:56.796Z,226.82
2023-03-13T10:54:56.858Z,229.81
2023-03-13T10:55:56.930Z,227.67
2023-03-13T10:56:56.994Z,229.86
2023-03-13T10:57:57.064Z,228.95
2023-03-13T12:03:00.610Z,182.59
2023-03-13T12:04:00.679Z,182.92
2023-03-13T12:05:00.768Z,177.62
2023-03-13T12:06:00.786Z,177.16
2023-03-13T12:07:03.032Z,180.92
2023-03-13T12:11:00.913Z,194.78
2023-03-13T12:12:01.004Z,195.87
2023-03-13T12:13:00.939Z,197.10
2023-03-13T12:14:00.943Z,196.42
2023-03-13T12:16:01.018Z,195.92
2023-03-13T12:17:00.970Z,217.85
2023-03-13T12:18:00.975Z,218.27
2023-03-13T12:19:00.989Z,218.18
2023-03-13T12:20:01.019Z,213.88
2023-03-13T12:21:01.008Z,214.18
2023-03-13T12:22:01.056Z,221.01
2023-03-13T12:23:01.038Z,237.62
2023-03-13T12:24:01.110Z,240.80
2023-03-13T12:25:01.127Z,240.94
2023-03-13T12:26:01.045Z,245.47
2023-03-13T12:27:02.064Z,245.73
2023-03-13T12:28:01.101Z,247.80
2023-03-13T12:29:01.064Z,251.25
2023-03-13T12:30:01.106Z,258.02
2023-03-13T12:31:01.151Z,268.02
2023-03-13T12:32:01.081Z,250.00
2023-03-13T12:33:01.183Z,243.15
2023-03-13T12:34:01.118Z,236.19
2023-03-13T12:35:01.117Z,234.78
2023-03-13T12:36:01.132Z,234.61
2023-03-13T12:37:01.136Z,232.98
2023-03-13T12:38:01.148Z,230.95
2023-03-13T12:39:01.222Z,230.15
2023-03-13T12:40:01.176Z,231.63
2023-03-13T12:41:01.191Z,228.03
2023-03-13T12:42:01.227Z,232.58
2023-03-13T12:43:01.275Z,231.89
2023-03-13T12:44:08.717Z,232.54
2023-03-13T12:45:02.337Z,232.71
2023-03-13T12:46:01.436Z,232.94
2023-03-13T12:47:01.351Z,234.06
2023-03-13T12:48:01.416Z,235.01
2023-03-13T12:49:01.360Z,237.27
2023-03-13T12:50:01.371Z,240.00
2023-03-13T12:51:01.389Z,241.66
2023-03-13T12:52:01.386Z,245.32
2023-03-13T12:53:01.403Z,245.26
2023-03-13T12:54:01.430Z,242.97
2023-03-13T12:55:01.413Z,245.81
2023-03-13T12:56:01.426Z,245.25
2023-03-13T12:57:01.448Z,245.53
2023-03-13T12:58:01.536Z,245.50
2023-03-13T12:59:01.479Z,244.24
2023-03-13T13:00:01.473Z,241.36
2023-03-13T13:01:01.568Z,243.09
2023-03-13T13:02:01.524Z,243.96
2023-03-13T13:03:01.572Z,241.10
2023-03-13T13:04:01.636Z,243.52
2023-03-13T13:05:01.691Z,243.41
2023-03-13T13:06:01.734Z,241.81
2023-03-13T13:07:01.762Z,242.75
2023-03-13T13:08:01.780Z,243.01
2023-03-13T13:09:01.826Z,244.19
2023-03-13T13:10:01.886Z,241.97
2023-03-13T13:11:01.921Z,247.13
2023-03-13T13:12:01.987Z,249.68
2023-03-13T13:13:02.008Z,247.83
2023-03-13T13:14:02.047Z,249.73
2023-03-13T13:15:02.090Z,248.22
2023-03-13T13:16:02.231Z,248.28
2023-03-13T13:17:02.170Z,248.12
2023-03-13T13:18:02.216Z,249.75
2023-03-13T13:19:02.266Z,249.56
2023-03-13T13:20:02.294Z,248.76
2023-03-13T13:21:02.364Z,244.74
2023-03-13T13:22:02.407Z,249.97
2023-03-13T13:23:02.422Z,244.84
2023-03-13T13:24:02.466Z,244.88
2023-03-13T13:25:02.509Z,247.94
2023-03-13T13:26:02.544Z,249.54
2023-03-13T13:27:02.585Z,250.41
2023-03-13T13:28:02.634Z,247.05
2023-03-13T13:29:02.694Z,245.50
2023-03-13T13:30:02.772Z,245.92
2023-03-13T13:31:03.007Z,249.82
2023-03-13T13:32:02.866Z,249.81
2023-03-13T13:33:02.994Z,247.49
2023-03-13T13:34:02.915Z,245.63
2023-03-13T13:35:02.972Z,247.36
2023-03-13T13:36:03.060Z,247.98
2023-03-13T13:37:03.047Z,248.46
2023-03-13T13:38:03.098Z,250.00
2023-03-13T13:39:03.133Z,249.59
2023-03-13T13:40:03.236Z,247.52
2023-03-13T13:41:03.236Z,248.72
2023-03-13T13:42:03.344Z,248.15
2023-03-13T13:43:03.335Z,246.69
2023-03-13T13:44:03.374Z,247.09
2023-03-13T13:45:03.425Z,249.31
2023-03-13T13:46:03.575Z,247.75
2023-03-13T13:47:03.521Z,249.53
2023-03-13T13:48:03.554Z,247.64
2023-03-13T13:49:03.588Z,247.55
2023-03-13T13:50:03.665Z,247.11
2023-03-13T13:51:03.712Z,247.77
2023-03-13T13:52:03.769Z,247.33
2023-03-13T13:53:03.808Z,247.01
2023-03-13T13:54:03.862Z,245.45
2023-03-13T13:55:03.900Z,247.03
2023-03-13T13:56:03.944Z,244.39
2023-03-13T13:57:04.073Z,247.36
2023-03-13T13:58:04.055Z,245.95
2023-03-13T13:59:04.087Z,244.07
2023-03-13T14:00:04.205Z,244.66
2023-03-13T14:01:04.204Z,246.87
2023-03-13T14:02:04.364Z,245.46
2023-03-13T14:03:04.288Z,249.62
2023-03-13T14:04:04.331Z,248.38
2023-03-13T14:05:04.431Z,248.82
2023-03-13T14:06:04.423Z,247.70
2023-03-13T14:07:04.486Z,248.02
2023-03-13T14:08:04.512Z,246.32
2023-03-13T14:09:04.565Z,248.69
2023-03-13T14:10:04.622Z,245.12
2023-03-13T14:11:04.658Z,245.98
2023-03-13T14:12:04.720Z,245.26
2023-03-13T14:13:04.742Z,247.34
2023-03-13T14:14:04.785Z,243.39
2023-03-13T14:15:04.839Z,247.90
2023-03-13T14:16:04.959Z,246.85
2023-03-13T14:17:04.939Z,245.75
2023-03-13T14:18:04.984Z,244.96
2023-03-13T14:19:05.036Z,243.80
2023-03-13T14:20:05.102Z,245.44
2023-03-13T14:21:05.144Z,243.89
2023-03-13T14:22:05.184Z,244.52
2023-03-13T14:23:05.231Z,245.89
2023-03-13T14:24:05.291Z,244.73
2023-03-13T14:25:05.334Z,244.11
2023-03-13T14:26:05.384Z,244.67
2023-03-13T14:27:05.435Z,245.78
2023-03-13T14:28:05.491Z,244.18
2023-03-13T14:29:08.032Z,244.96
2023-03-13T14:30:05.551Z,243.98
2023-03-13T14:31:05.604Z,245.60
2023-03-13T14:32:05.556Z,244.30
2023-03-13T14:33:05.593Z,244.48
2023-03-13T14:34:05.567Z,245.50
2023-03-13T14:35:05.574Z,243.26
2023-03-13T14:36:05.606Z,243.77
2023-03-13T14:37:17.596Z,242.71
2023-03-13T14:38:06.598Z,242.90
2023-03-13T14:39:05.639Z,243.12
2023-03-13T14:40:05.657Z,243.33
2023-03-13T14:41:05.625Z,243.47
2023-03-13T14:42:05.690Z,244.21
2023-03-13T14:43:05.645Z,243.60
2023-03-13T14:44:05.664Z,242.12
2023-03-13T14:45:05.655Z,240.60
2023-03-13T14:46:05.662Z,239.82
2023-03-13T14:47:05.803Z,236.74
2023-03-13T14:48:05.697Z,234.48
2023-03-13T14:49:05.674Z,233.09
2023-03-13T14:50:05.784Z,230.98
2023-03-13T14:51:15.239Z,231.17
2023-03-13T14:52:06.717Z,231.32
2023-03-13T14:53:05.756Z,231.36
2023-03-13T14:54:05.766Z,232.00
2023-03-13T14:55:05.798Z,233.59
2023-03-13T14:56:05.753Z,234.28
2023-03-13T14:57:05.797Z,233.63
2023-03-13T14:58:05.765Z,238.04
2023-03-13T14:59:05.781Z,237.96
2023-03-13T15:00:05.788Z,238.34
2023-03-13T15:01:05.858Z,240.25
2023-03-13T15:02:05.811Z,239.90
2023-03-13T15:03:05.820Z,240.71
2023-03-13T15:04:05.887Z,242.87
2023-03-13T15:05:05.839Z,244.58
2023-03-13T15:06:05.876Z,239.88
2023-03-13T15:07:05.934Z,244.26
2023-03-13T15:08:05.976Z,244.84
2023-03-13T15:09:06.011Z,240.54
2023-03-13T15:10:06.094Z,237.96
2023-03-13T15:11:06.139Z,238.49
2023-03-13T15:12:06.219Z,241.13
2023-03-13T15:13:06.239Z,241.15
2023-03-13T15:14:06.265Z,247.90
2023-03-13T15:15:06.406Z,249.84
2023-03-13T15:16:06.389Z,248.84
2023-03-13T15:17:06.414Z,248.70
2023-03-13T15:18:06.456Z,250.14
2023-03-13T15:19:06.544Z,250.00
2023-03-13T15:20:08.489Z,245.29
2023-03-13T15:21:07.394Z,240.27
2023-03-13T15:22:06.588Z,237.87
2023-03-13T15:23:06.598Z,234.39
2023-03-13T15:24:06.615Z,227.62
2023-03-13T15:25:07.914Z,225.28
2023-03-13T15:26:06.641Z,226.49
2023-03-13T15:27:06.658Z,221.18
2023-03-13T15:28:06.674Z,222.76
2023-03-13T15:29:06.719Z,220.32
2023-03-13T15:30:06.818Z,220.35
2023-03-13T15:31:06.722Z,219.01
2023-03-13T15:32:06.862Z,217.51
2023-03-13T15:33:06.822Z,216.15
2023-03-13T15:34:06.761Z,217.10
2023-03-13T15:35:06.772Z,215.25
2023-03-13T15:36:06.931Z,213.66
2023-03-13T15:37:06.802Z,211.97
2023-03-13T15:38:06.815Z,211.74
2023-03-13T15:39:06.822Z,212.41
2023-03-13T15:40:06.846Z,211.16
2023-03-13T15:41:06.845Z,211.38
2023-03-13T15:42:06.860Z,209.14
2023-03-13T15:43:06.873Z,208.57
2023-03-13T15:44:06.878Z,205.20
2023-03-13T15:45:06.895Z,206.51
2023-03-13T15:46:06.956Z,207.78
2023-03-13T15:47:07.004Z,204.68
2023-03-13T15:48:07.061Z,205.06
2023-03-13T15:49:07.128Z,203.26
2023-03-13T15:50:07.149Z,200.94
2023-03-13T15:51:07.207Z,200.09
2023-03-13T15:52:07.274Z,197.52
2023-03-13T15:53:07.316Z,198.96
2023-03-13T15:54:07.490Z,197.38
2023-03-13T15:55:07.432Z,197.11
2023-03-13T15:56:07.504Z,199.46
2023-03-13T15:57:07.564Z,197.74
2023-03-13T15:58:07.605Z,196.85
2023-03-13T15:59:07.663Z,197.97
2023-03-13T16:00:07.719Z,195.33
2023-03-13T16:01:07.827Z,200.23
2023-03-13T16:02:07.836Z,196.27
2023-03-13T16:03:07.894Z,195.09
2023-03-13T16:04:07.999Z,196.86
2023-03-13T16:05:10.062Z,195.90
2023-03-13T16:06:08.063Z,194.17
2023-03-13T16:07:08.119Z,195.05
2023-03-13T16:08:08.180Z,195.24
2023-03-13T16:09:08.241Z,196.94
2023-03-13T16:10:08.289Z,195.92
2023-03-13T16:11:08.342Z,194.79
2023-03-13T16:12:08.407Z,196.15
2023-03-13T16:13:08.467Z,195.07
2023-03-13T16:14:08.529Z,192.85
2023-03-13T16:15:08.616Z,194.67
2023-03-13T16:16:08.665Z,192.56
2023-03-13T16:17:08.719Z,197.86
2023-03-13T16:18:08.755Z,197.68
2023-03-13T16:19:08.810Z,197.70
2023-03-13T16:20:08.877Z,197.08
2023-03-13T16:21:08.927Z,197.35
2023-03-13T16:22:08.994Z,196.03
2023-03-13T16:23:09.046Z,199.22
2023-03-13T16:24:09.105Z,196.43
2023-03-13T16:25:09.162Z,196.38
2023-03-13T16:26:09.218Z,197.49
2023-03-13T16:27:09.271Z,196.92
2023-03-13T16:28:09.349Z,197.32
2023-03-13T16:29:09.408Z,199.45
2023-03-13T16:30:09.452Z,196.81
2023-03-13T16:31:09.550Z,199.95
2023-03-13T16:32:09.580Z,197.61
2023-03-13T16:33:09.638Z,197.61
2023-03-13T16:34:09.691Z,198.31
2023-03-13T16:35:09.751Z,197.62
2023-03-13T16:37:09.874Z,199.76
2023-03-13T16:38:09.934Z,199.73
2023-03-13T16:39:09.982Z,198.11
2023-03-13T16:40:10.048Z,197.06
2023-03-13T16:41:10.113Z,198.64
2023-03-13T16:43:10.259Z,195.97
2023-03-13T16:44:10.314Z,197.36
2023-03-13T16:46:10.434Z,197.52
2023-03-13T16:47:10.580Z,198.84
2023-03-13T16:48:10.539Z,195.56
2023-03-13T16:49:10.601Z,198.50
2023-03-13T16:50:10.669Z,195.02
2023-03-13T16:51:10.722Z,196.27
2023-03-13T16:52:10.784Z,196.76
2023-03-13T16:53:10.845Z,196.45
2023-03-13T16:54:10.916Z,195.97
2023-03-13T16:55:10.966Z,193.71
2023-03-13T16:56:11.040Z,195.62
2023-03-13T16:57:11.120Z,196.19
2023-03-13T16:58:11.151Z,195.00
2023-03-13T16:59:11.225Z,195.15
2023-03-13T17:00:11.274Z,196.47
2023-03-13T17:01:11.331Z,197.71
2023-03-13T17:02:11.422Z,197.40
2023-03-13T17:03:11.448Z,194.98
2023-03-13T17:04:11.521Z,195.27
2023-03-13T17:06:11.631Z,193.40
2023-03-13T17:07:11.685Z,192.78
2023-03-13T17:08:11.745Z,193.30
2023-03-13T17:09:11.817Z,194.73
2023-03-13T17:10:11.870Z,195.19
2023-03-13T17:11:12.188Z,196.18
2023-03-13T17:12:11.994Z,195.86
2023-03-13T17:13:12.052Z,191.71
2023-03-13T17:14:12.112Z,191.09
2023-03-13T17:15:12.175Z,191.42
2023-03-13T17:16:12.276Z,190.36
2023-03-13T17:17:12.302Z,192.32
2023-03-13T17:18:12.362Z,191.81
2023-03-13T17:19:12.432Z,190.78
2023-03-13T17:20:12.487Z,191.77
2023-03-13T17:21:12.544Z,190.50
2023-03-13T19:29:20.617Z,164.65
2023-03-13T19:30:20.663Z,164.01
2023-03-13T19:31:20.753Z,164.07
2023-03-13T19:32:20.835Z,162.17
2023-03-13T19:33:20.853Z,162.83
2023-03-13T19:34:20.929Z,163.15
2023-03-13T19:35:20.985Z,165.52
2023-03-13T19:36:21.056Z,161.16
2023-03-13T19:37:21.083Z,163.36
2023-03-13T19:38:21.210Z,162.85
2023-03-13T19:39:21.215Z,161.74
2023-03-13T19:40:21.278Z,162.89
2023-03-13T19:41:21.342Z,163.87
2023-03-13T19:42:21.398Z,162.07
2023-03-13T19:43:21.470Z,160.68
2023-03-13T19:44:21.536Z,159.51
2023-03-13T19:45:21.620Z,163.61
2023-03-13T19:46:21.678Z,163.19
2023-03-13T19:47:21.749Z,163.54
2023-03-13T19:48:21.809Z,162.91
2023-03-13T19:49:21.905Z,165.35
2023-03-13T19:50:21.959Z,163.29
2023-03-13T19:51:22.028Z,162.37
2023-03-13T19:52:22.074Z,161.76
2023-03-13T19:53:22.129Z,162.54
2023-03-13T19:54:22.217Z,164.49
2023-03-13T19:55:22.289Z,166.45
2023-03-13T19:56:22.347Z,165.14
2023-03-13T19:57:22.410Z,164.77
2023-03-13T19:58:22.493Z,160.88
2023-03-13T19:59:22.551Z,160.36
2023-03-13T20:00:22.623Z,161.65
2023-03-13T20:01:22.761Z,164.60
2023-03-13T20:02:22.771Z,159.97
2023-03-13T20:03:22.826Z,162.54
2023-03-13T20:04:22.900Z,161.23
2023-03-13T20:05:22.966Z,159.85
2023-03-13T20:06:23.035Z,160.88
2023-03-13T20:07:23.099Z,160.20
2023-03-13T20:08:23.161Z,159.79
2023-03-13T20:09:23.252Z,162.48
2023-03-13T20:10:23.293Z,162.38
2023-03-13T20:11:23.352Z,161.28
2023-03-13T20:12:23.422Z,159.29
2023-03-13T20:13:23.492Z,163.28
2023-03-13T20:14:23.561Z,160.05
2023-03-13T20:15:23.638Z,158.55
2023-03-13T20:16:23.701Z,158.83
2023-03-13T20:17:23.766Z,159.17
2023-03-13T20:18:23.840Z,155.97
2023-03-13T20:19:23.902Z,159.43
2023-03-13T20:20:23.968Z,158.52
2023-03-13T20:21:24.045Z,158.11
2023-03-13T20:22:24.105Z,160.97
2023-03-13T20:23:24.171Z,157.33
2023-03-13T20:24:24.244Z,160.73
2023-03-13T20:25:25.336Z,160.16
2023-03-13T20:26:24.429Z,159.97
2023-03-13T20:27:24.443Z,160.12
2023-03-13T20:28:24.505Z,156.44
2023-03-13T20:29:24.591Z,155.95
2023-03-13T20:30:24.641Z,155.92
2023-03-13T20:31:24.755Z,158.49
2023-03-13T20:32:24.845Z,158.04
2023-03-13T20:33:24.861Z,154.24
2023-03-13T20:34:24.905Z,154.13
2023-03-13T20:35:24.981Z,152.14
2023-03-13T20:36:25.027Z,154.38
2023-03-13T20:37:25.118Z,151.35
2023-03-13T20:38:25.180Z,154.03
2023-03-13T20:39:25.223Z,152.41
2023-03-13T20:40:25.351Z,153.77
2023-03-13T20:41:25.355Z,152.11
2023-03-13T20:42:25.435Z,148.72
2023-03-13T20:43:25.497Z,151.50
2023-03-13T20:44:25.561Z,150.05
2023-03-13T20:45:25.626Z,152.68
2023-03-13T20:46:25.766Z,152.16
2023-03-13T20:47:25.765Z,148.73
2023-03-13T20:48:25.822Z,148.55
2023-03-13T20:49:25.891Z,149.28
2023-03-13T20:50:25.964Z,149.86
2023-03-13T20:51:26.025Z,150.01
2023-03-13T20:52:26.097Z,149.27
2023-03-13T20:53:26.160Z,146.49
2023-03-13T20:54:26.223Z,151.44
2023-03-13T20:55:26.316Z,150.97
2023-03-13T20:56:26.375Z,147.44
2023-03-13T20:57:26.432Z,149.96
2023-03-13T20:58:26.507Z,149.83
2023-03-13T20:59:26.558Z,147.64
2023-03-13T21:00:26.631Z,146.45
2023-03-13T21:01:27.725Z,148.74
2023-03-13T21:02:26.784Z,147.41
2023-03-13T21:03:26.846Z,146.17
2023-03-13T21:04:26.966Z,148.34
2023-03-13T21:05:26.985Z,141.86
2023-03-13T21:06:27.048Z,146.21
2023-03-13T21:07:27.119Z,147.03
2023-03-13T21:08:27.170Z,142.62
2023-03-13T21:09:27.244Z,147.56
2023-03-13T21:10:27.311Z,143.44
2023-03-13T21:11:27.375Z,146.90
2023-03-13T21:12:27.446Z,145.33
2023-03-13T21:13:27.517Z,147.65
2023-03-13T21:14:27.580Z,142.42
2023-03-13T21:15:27.647Z,141.77
2023-03-13T21:16:27.839Z,143.56
2023-03-13T21:17:27.772Z,142.26
2023-03-13T21:18:27.843Z,142.59
2023-03-13T21:19:27.913Z,141.08
2023-03-13T21:20:27.975Z,145.28
2023-03-13T21:21:28.046Z,140.35
2023-03-13T21:22:28.116Z,139.43
2023-03-13T21:23:28.184Z,137.79
2023-03-13T21:24:28.250Z,139.04
2023-03-13T21:25:28.321Z,143.62
2023-03-13T21:26:28.383Z,141.27
2023-03-13T21:27:28.467Z,138.78
2023-03-13T21:28:28.517Z,137.02
2023-03-13T21:29:28.580Z,137.02
2023-03-13T21:30:28.650Z,137.84
2023-03-13T21:31:28.727Z,139.52
2023-03-13T21:32:28.849Z,136.49
2023-03-13T21:33:28.860Z,138.43
2023-03-13T21:34:28.934Z,135.66
2023-03-13T21:35:29.014Z,134.99
2023-03-13T21:36:29.055Z,135.96
2023-03-13T21:37:29.145Z,134.00
2023-03-13T21:38:29.188Z,134.71
2023-03-13T21:39:29.257Z,137.60
2023-03-13T21:40:29.327Z,134.68
2023-03-13T21:41:29.394Z,135.60
2023-03-13T21:42:29.459Z,134.39
2023-03-13T21:43:29.539Z,136.76
2023-03-13T21:44:29.589Z,134.66
2023-03-13T21:45:29.672Z,134.34
2023-03-13T21:46:29.834Z,132.15
2023-03-13T21:47:29.791Z,131.82
2023-03-13T21:48:29.862Z,134.46
2023-03-13T21:49:29.916Z,133.54
2023-03-13T21:50:29.996Z,131.66
2023-03-13T21:51:30.057Z,137.71
2023-03-13T21:52:30.126Z,132.63
2023-03-13T21:53:30.190Z,131.98
2023-03-13T21:54:30.258Z,135.31
2023-03-13T21:55:30.325Z,131.00
2023-03-13T21:56:30.388Z,127.87
2023-03-13T21:57:30.448Z,128.63
2023-03-13T21:58:30.510Z,128.53
2023-03-13T21:59:30.578Z,130.47
2023-03-13T22:00:32.758Z,129.96
2023-03-13T22:01:30.654Z,134.14
2023-03-13T22:02:30.676Z,129.52
2023-03-13T22:03:30.733Z,131.82
2023-03-13T22:04:30.714Z,133.88
2023-03-13T22:05:30.845Z,128.23
2023-03-13T22:06:30.776Z,132.20
2023-03-13T22:07:30.799Z,131.14
2023-03-13T22:08:30.818Z,133.13
2023-03-13T22:09:30.840Z,127.82
2023-03-13T22:10:30.865Z,128.04
2023-03-13T22:11:30.892Z,132.39
2023-03-13T22:12:30.905Z,125.95
2023-03-13T22:13:30.930Z,124.49
2023-03-13T22:14:30.961Z,127.80
2023-03-13T22:15:30.972Z,125.68
2023-03-13T22:16:30.986Z,125.10
2023-03-13T22:17:31.013Z,125.58
2023-03-13T22:18:31.041Z,125.17
2023-03-13T22:19:31.060Z,124.10
2023-03-13T22:20:31.080Z,124.14
2023-03-13T22:21:31.098Z,124.24
2023-03-13T22:22:31.116Z,124.83
2023-03-13T22:23:31.152Z,122.08
2023-03-13T22:24:31.166Z,122.24
2023-03-13T22:25:31.179Z,121.28
2023-03-13T22:26:31.203Z,124.65
2023-03-13T22:27:31.225Z,119.80
2023-03-13T22:28:31.247Z,121.60
2023-03-13T22:29:31.258Z,122.63
2023-03-13T22:30:31.270Z,124.33
2023-03-13T22:31:31.278Z,123.76
2023-03-13T22:32:31.324Z,123.39
2023-03-13T22:33:31.341Z,123.74
2023-03-13T22:34:31.343Z,120.54
2023-03-13T22:35:31.360Z,121.26
2023-03-13T22:36:31.384Z,122.55
2023-03-13T22:37:31.414Z,121.79
2023-03-13T22:38:31.413Z,122.96
2023-03-13T22:39:31.433Z,121.07
2023-03-13T22:40:31.464Z,121.04
2023-03-13T22:41:31.481Z,119.97
2023-03-13T22:42:31.503Z,119.65
2023-03-13T22:43:31.515Z,119.22
2023-03-13T22:44:31.541Z,119.25
2023-03-13T22:45:31.558Z,116.30
2023-03-13T22:46:31.586Z,118.97
2023-03-13T22:47:31.624Z,116.58
2023-03-13T22:48:31.617Z,117.96
2023-03-13T22:49:31.631Z,116.86
2023-03-13T22:50:31.657Z,119.46
2023-03-13T22:51:31.665Z,120.19
2023-03-13T22:52:31.679Z,115.10
2023-03-13T22:53:31.698Z,119.30
2023-03-13T22:54:31.705Z,116.96
2023-03-13T22:55:31.727Z,116.37
2023-03-13T22:56:31.749Z,117.91
2023-03-13T22:57:31.753Z,114.27
2023-03-13T22:58:32.522Z,114.03